Thunder radar more information blitzortung!


Radar de pluja more information rain snow radar


Visita la nostra xarxa de llocs de meteo:

Template documentation
and downloads

And another site



Extreme low temperature From: 23-02-2018 09:00 Until: 09:59 warning for: Extreme low temperature Level: Yellow info button

Pagina Historial Weather Underground text

Diari Resum February 8, 2018 Unitats:  Tant    Imperial   Mètric
« Previous Dia
SegĂźent Dia »
Diari Setmana Mensual Anual Personalitzada
  Maxima: Minima: Media:
Temperatura: TemperatureC °F /  -17.8 °C -1.0 °F /  -18.3 °C 2.2 °F /  -16.6 °C
Punt de rosada: DewpointC °F /  -17.8 °C -8.0 °F /  -22.2 °C -5.1 °F /  -20.6 °C
Humitat: Humidity % 49 % 58 %
Wind Speed: WindSpeedKMH mph /  0 km/h - 3.6 mph /  5.8 km/h
RĂ fegues de vent: WindSpeedGustKMH mph /  0 km/h - -
Vent:- - SE
Pression baro: PressurehPa in /  0 hPa 1014.8 in /  34361.1 hPa -
Precipitacions: 0.0 in /  0 mm    
Historical Graphs
 
 
Dades de taula per February 8, 2018
Temps Temperatura Punt de rosada Pression baro Vent Wind Speed RĂ fegues de vent Humitat Rainfall Rate (Hourly)
TemperatureC °F /  -17.8 °C DewpointC °F /  -17.8 °C PressurehPa in /  0 hPa Calm     Humidity % HourlyPrecipMM in /  0 mm
00:01 2.9 °F /  -16.2 °C -6.5 °F /  -21.4 °C 1015.8 in /  34395 hPa West 3.9 mph /  6.3 km/h 3.9 mph /  6.3 km/h 50 % 0.0 in /  0 mm
00:06 2.9 °F /  -16.2 °C -6.5 °F /  -21.4 °C 1015.8 in /  34395 hPa NNE 3.7 mph /  6 km/h 3.7 mph /  6 km/h 50 % 0.0 in /  0 mm
00:11 2.8 °F /  -16.2 °C -6.6 °F /  -21.4 °C 1015.8 in /  34395 hPa WNW 3.2 mph /  5.1 km/h   50 % 0.0 in /  0 mm
00:16 2.7 °F /  -16.3 °C -6.7 °F /  -21.5 °C 1015.8 in /  34395 hPa NW 4.2 mph /  6.8 km/h   50 % 0.0 in /  0 mm
00:21 2.6 °F /  -16.3 °C -6.8 °F /  -21.6 °C 1015.8 in /  34395 hPa NW 3.7 mph /  6 km/h 3.7 mph /  6 km/h 50 % 0.0 in /  0 mm
00:26 2.5 °F /  -16.4 °C -6.9 °F /  -21.6 °C 1015.8 in /  34395 hPa SSE 1.9 mph /  3.1 km/h   50 % 0.0 in /  0 mm
00:31 2.5 °F /  -16.4 °C -6.9 °F /  -21.6 °C 1015.8 in /  34395 hPa WNW 1.9 mph /  3.1 km/h   50 % 0.0 in /  0 mm
00:36 2.4 °F /  -16.4 °C -7.0 °F /  -21.7 °C 1015.8 in /  34395 hPa West 1.9 mph /  3.1 km/h 1.9 mph /  3.1 km/h 50 % 0.0 in /  0 mm
00:41 2.2 °F /  -16.6 °C -7.2 °F /  -21.8 °C 1015.8 in /  34395 hPa Calm     50 % 0.0 in /  0 mm
00:46 2.2 °F /  -16.6 °C -7.2 °F /  -21.8 °C 1015.8 in /  34395 hPa WNW 3.7 mph /  6 km/h 3.7 mph /  6 km/h 50 % 0.0 in /  0 mm
00:51 2.1 °F /  -16.6 °C -7.3 °F /  -21.8 °C 1015.8 in /  34395 hPa NNE 1.9 mph /  3.1 km/h 2.3 mph /  3.7 km/h 50 % 0.0 in /  0 mm
00:56 2.0 °F /  -16.7 °C -7.1 °F /  -21.7 °C 1015.8 in /  34395 hPa WNW 1.9 mph /  3.1 km/h   51 % 0.0 in /  0 mm
01:01 2.0 °F /  -16.7 °C -7.1 °F /  -21.7 °C 1015.8 in /  34395 hPa ENE 2.3 mph /  3.7 km/h   51 % 0.0 in /  0 mm
01:06 1.9 °F /  -16.7 °C -7.2 °F /  -21.8 °C 1015.8 in /  34395 hPa NNW 1.9 mph /  3.1 km/h 1.9 mph /  3.1 km/h 51 % 0.0 in /  0 mm
01:11 1.9 °F /  -16.7 °C -7.2 °F /  -21.8 °C 1015.8 in /  34395 hPa WNW 1.9 mph /  3.1 km/h   51 % 0.0 in /  0 mm
01:16 1.8 °F /  -16.8 °C -7.3 °F /  -21.8 °C 1015.8 in /  34395 hPa West 1.9 mph /  3.1 km/h   51 % 0.0 in /  0 mm
01:21 1.8 °F /  -16.8 °C -7.3 °F /  -21.8 °C 1015.8 in /  34395 hPa West 1.9 mph /  3.1 km/h 1.9 mph /  3.1 km/h 51 % 0.0 in /  0 mm
01:26 1.7 °F /  -16.8 °C -7.4 °F /  -21.9 °C 1015.8 in /  34395 hPa West 3.7 mph /  6 km/h 3.7 mph /  6 km/h 51 % 0.0 in /  0 mm
01:31 1.6 °F /  -16.9 °C -7.4 °F /  -21.9 °C 1015.8 in /  34395 hPa WSW 1.9 mph /  3.1 km/h 2.3 mph /  3.7 km/h 51 % 0.0 in /  0 mm
01:36 1.7 °F /  -16.8 °C -7.4 °F /  -21.9 °C 1015.8 in /  34395 hPa West 3.7 mph /  6 km/h 3.7 mph /  6 km/h 51 % 0.0 in /  0 mm
01:41 1.7 °F /  -16.8 °C -7.4 °F /  -21.9 °C 1015.8 in /  34395 hPa West 1.9 mph /  3.1 km/h 1.9 mph /  3.1 km/h 51 % 0.0 in /  0 mm
01:46 1.5 °F /  -16.9 °C -7.6 °F /  -22 °C 1015.8 in /  34395 hPa Calm     51 % 0.0 in /  0 mm
01:51 1.4 °F /  -17 °C -7.7 °F /  -22.1 °C 1015.8 in /  34395 hPa West 2.6 mph /  4.2 km/h   51 % 0.0 in /  0 mm
01:56 1.5 °F /  -16.9 °C -7.6 °F /  -22 °C 1015.8 in /  34395 hPa West 1.9 mph /  3.1 km/h 1.9 mph /  3.1 km/h 51 % 0.0 in /  0 mm
02:01 1.5 °F /  -16.9 °C -7.6 °F /  -22 °C 1015.8 in /  34395 hPa West 1.9 mph /  3.1 km/h   51 % 0.0 in /  0 mm
02:06 1.6 °F /  -16.9 °C -7.4 °F /  -21.9 °C 1015.8 in /  34395 hPa ENE 3.7 mph /  6 km/h 3.7 mph /  6 km/h 51 % 0.0 in /  0 mm
02:11 1.5 °F /  -16.9 °C -7.6 °F /  -22 °C 1015.8 in /  34395 hPa ENE 3.7 mph /  6 km/h 3.7 mph /  6 km/h 51 % 0.0 in /  0 mm
02:16 1.3 °F /  -17.1 °C -7.5 °F /  -21.9 °C 1014.8 in /  34361.1 hPa NNE 2.3 mph /  3.7 km/h   52 % 0.0 in /  0 mm
02:21 1.3 °F /  -17.1 °C -7.5 °F /  -21.9 °C 1014.8 in /  34361.1 hPa NNE 2.3 mph /  3.7 km/h 2.3 mph /  3.7 km/h 52 % 0.0 in /  0 mm
02:26 1.2 °F /  -17.1 °C -7.6 °F /  -22 °C 1014.8 in /  34361.1 hPa NNE 3.7 mph /  6 km/h 3.7 mph /  6 km/h 52 % 0.0 in /  0 mm
02:31 1.2 °F /  -17.1 °C -7.6 °F /  -22 °C 1015.8 in /  34395 hPa NNE 1.9 mph /  3.1 km/h   52 % 0.0 in /  0 mm
02:36 1.1 °F /  -17.2 °C -7.7 °F /  -22.1 °C 1015.8 in /  34395 hPa Calm     52 % 0.0 in /  0 mm
02:41 1.0 °F /  -17.2 °C -7.8 °F /  -22.1 °C 1015.8 in /  34395 hPa WNW 1.9 mph /  3.1 km/h 1.9 mph /  3.1 km/h 52 % 0.0 in /  0 mm
02:46 0.9 °F /  -17.3 °C -7.9 °F /  -22.2 °C 1015.8 in /  34395 hPa Calm     52 % 0.0 in /  0 mm
02:51 0.8 °F /  -17.3 °C -7.9 °F /  -22.2 °C 1015.8 in /  34395 hPa Calm     52 % 0.0 in /  0 mm
02:56 0.8 °F /  -17.3 °C -7.9 °F /  -22.2 °C 1015.8 in /  34395 hPa Calm     52 % 0.0 in /  0 mm
03:01 0.7 °F /  -17.4 °C -7.8 °F /  -22.1 °C 1015.8 in /  34395 hPa Calm     53 % 0.0 in /  0 mm
03:06 0.6 °F /  -17.4 °C -7.9 °F /  -22.2 °C 1015.8 in /  34395 hPa WSW 3.5 mph /  5.6 km/h 3.5 mph /  5.6 km/h 53 % 0.0 in /  0 mm
03:11 0.5 °F /  -17.5 °C -8.0 °F /  -22.2 °C 1015.8 in /  34395 hPa WSW 2.3 mph /  3.7 km/h 2.3 mph /  3.7 km/h 53 % 0.0 in /  0 mm
03:16 0.6 °F /  -17.4 °C -7.9 °F /  -22.2 °C 1014.8 in /  34361.1 hPa West 3.7 mph /  6 km/h 3.7 mph /  6 km/h 53 % 0.0 in /  0 mm
03:21 0.6 °F /  -17.4 °C -7.9 °F /  -22.2 °C 1014.8 in /  34361.1 hPa South 1.9 mph /  3.1 km/h   53 % 0.0 in /  0 mm
03:26 0.6 °F /  -17.4 °C -7.9 °F /  -22.2 °C 1014.8 in /  34361.1 hPa WNW 1.9 mph /  3.1 km/h 1.9 mph /  3.1 km/h 53 % 0.0 in /  0 mm
03:31 0.6 °F /  -17.4 °C -7.9 °F /  -22.2 °C 1015.8 in /  34395 hPa WNW 2.6 mph /  4.2 km/h 2.6 mph /  4.2 km/h 53 % 0.0 in /  0 mm
03:36 0.6 °F /  -17.4 °C -7.9 °F /  -22.2 °C 1015.8 in /  34395 hPa West 3.7 mph /  6 km/h 3.7 mph /  6 km/h 53 % 0.0 in /  0 mm
03:41 0.5 °F /  -17.5 °C -7.7 °F /  -22.1 °C 1015.8 in /  34395 hPa WNW 2.6 mph /  4.2 km/h 2.6 mph /  4.2 km/h 54 % 0.0 in /  0 mm
03:46 0.4 °F /  -17.6 °C -7.8 °F /  -22.1 °C 1015.8 in /  34395 hPa West 1.9 mph /  3.1 km/h   54 % 0.0 in /  0 mm
03:51 0.4 °F /  -17.6 °C -7.8 °F /  -22.1 °C 1015.8 in /  34395 hPa NW 3.7 mph /  6 km/h 3.7 mph /  6 km/h 54 % 0.0 in /  0 mm
03:56 0.4 °F /  -17.6 °C -7.8 °F /  -22.1 °C 1015.8 in /  34395 hPa NW 1.9 mph /  3.1 km/h 1.9 mph /  3.1 km/h 54 % 0.0 in /  0 mm
04:01 0.4 °F /  -17.6 °C -7.8 °F /  -22.1 °C 1015.8 in /  34395 hPa ENE 5.6 mph /  9 km/h 5.6 mph /  9 km/h 54 % 0.0 in /  0 mm
04:06 0.4 °F /  -17.6 °C -7.6 °F /  -22 °C 1015.8 in /  34395 hPa Calm     55 % 0.0 in /  0 mm
04:11 0.3 °F /  -17.6 °C -7.7 °F /  -22.1 °C 1015.8 in /  34395 hPa Calm     55 % 0.0 in /  0 mm
04:16 0.2 °F /  -17.7 °C -7.8 °F /  -22.1 °C 1014.8 in /  34361.1 hPa Calm     55 % 0.0 in /  0 mm
04:21 0.2 °F /  -17.7 °C -7.8 °F /  -22.1 °C 1014.8 in /  34361.1 hPa WNW 1.9 mph /  3.1 km/h 2.3 mph /  3.7 km/h 55 % 0.0 in /  0 mm
04:26 0.2 °F /  -17.7 °C -7.8 °F /  -22.1 °C 1014.8 in /  34361.1 hPa WNW 3.2 mph /  5.1 km/h   55 % 0.0 in /  0 mm
04:31 0.2 °F /  -17.7 °C -7.8 °F /  -22.1 °C 1015.8 in /  34395 hPa WNW 1.9 mph /  3.1 km/h 1.9 mph /  3.1 km/h 55 % 0.0 in /  0 mm
04:36 0.2 °F /  -17.7 °C -7.8 °F /  -22.1 °C 1015.8 in /  34395 hPa Calm     55 % 0.0 in /  0 mm
04:41 0.2 °F /  -17.7 °C -7.8 °F /  -22.1 °C 1015.8 in /  34395 hPa West 3.7 mph /  6 km/h 3.7 mph /  6 km/h 55 % 0.0 in /  0 mm
04:46 0.2 °F /  -17.7 °C -7.8 °F /  -22.1 °C 1015.8 in /  34395 hPa WSW 3.7 mph /  6 km/h 3.7 mph /  6 km/h 55 % 0.0 in /  0 mm
04:51 0.0 °F /  -17.8 °C -7.7 °F /  -22.1 °C 1015.8 in /  34395 hPa WSW 3.2 mph /  5.1 km/h 3.2 mph /  5.1 km/h 56 % 0.0 in /  0 mm
04:56 0.0 °F /  -17.8 °C -7.7 °F /  -22.1 °C 1015.8 in /  34395 hPa WSW 1.9 mph /  3.1 km/h 1.9 mph /  3.1 km/h 56 % 0.0 in /  0 mm
05:01 -0.1 °F /  -17.8 °C -7.8 °F /  -22.1 °C 1015.8 in /  34395 hPa Calm     56 % 0.0 in /  0 mm
05:06 -0.2 °F /  -17.9 °C -7.7 °F /  -22.1 °C 1015.8 in /  34395 hPa Calm     57 % 0.0 in /  0 mm
05:11 -0.2 °F /  -17.9 °C -7.7 °F /  -22.1 °C 1015.8 in /  34395 hPa Calm     57 % 0.0 in /  0 mm
05:16 -0.1 °F /  -17.8 °C -7.6 °F /  -22 °C 1015.8 in /  34395 hPa Calm     57 % 0.0 in /  0 mm
05:21 -0.2 °F /  -17.9 °C -7.7 °F /  -22.1 °C 1015.8 in /  34395 hPa WSW 3.2 mph /  5.1 km/h   57 % 0.0 in /  0 mm
05:26 -0.3 °F /  -17.9 °C -7.8 °F /  -22.1 °C 1015.8 in /  34395 hPa WSW 2.3 mph /  3.7 km/h 2.3 mph /  3.7 km/h 57 % 0.0 in /  0 mm
05:31 -0.2 °F /  -17.9 °C -7.7 °F /  -22.1 °C 1015.8 in /  34395 hPa WSW 1.9 mph /  3.1 km/h 2.3 mph /  3.7 km/h 57 % 0.0 in /  0 mm
05:36 -0.2 °F /  -17.9 °C -7.5 °F /  -21.9 °C 1015.8 in /  34395 hPa Calm     58 % 0.0 in /  0 mm
05:41 -0.4 °F /  -18 °C -7.7 °F /  -22.1 °C 1015.8 in /  34395 hPa WSW 1.9 mph /  3.1 km/h 2.3 mph /  3.7 km/h 58 % 0.0 in /  0 mm
05:46 -0.4 °F /  -18 °C -7.4 °F /  -21.9 °C 1015.8 in /  34395 hPa WSW 1.9 mph /  3.1 km/h   59 % 0.0 in /  0 mm
05:51 -0.3 °F /  -17.9 °C -7.3 °F /  -21.8 °C 1015.8 in /  34395 hPa NNE 3.2 mph /  5.1 km/h 3.2 mph /  5.1 km/h 59 % 0.0 in /  0 mm
05:56 -0.3 °F /  -17.9 °C -7.3 °F /  -21.8 °C 1015.8 in /  34395 hPa NE 2.6 mph /  4.2 km/h 2.6 mph /  4.2 km/h 59 % 0.0 in /  0 mm
06:01 -0.3 °F /  -17.9 °C -7.3 °F /  -21.8 °C 1015.8 in /  34395 hPa WNW 2.6 mph /  4.2 km/h   59 % 0.0 in /  0 mm
06:06 -0.3 °F /  -17.9 °C -7.3 °F /  -21.8 °C 1015.8 in /  34395 hPa ENE 2.3 mph /  3.7 km/h   59 % 0.0 in /  0 mm
06:11 -0.2 °F /  -17.9 °C -7.3 °F /  -21.8 °C 1015.8 in /  34395 hPa NNE 4.2 mph /  6.8 km/h 4.2 mph /  6.8 km/h 59 % 0.0 in /  0 mm
06:16 -0.2 °F /  -17.9 °C -7.3 °F /  -21.8 °C 1015.8 in /  34395 hPa WNW 3.7 mph /  6 km/h 3.7 mph /  6 km/h 59 % 0.0 in /  0 mm
06:21 -0.2 °F /  -17.9 °C -7.3 °F /  -21.8 °C 1015.8 in /  34395 hPa WNW 3.7 mph /  6 km/h 3.7 mph /  6 km/h 59 % 0.0 in /  0 mm
06:26 -0.3 °F /  -17.9 °C -7.3 °F /  -21.8 °C 1015.8 in /  34395 hPa Calm     59 % 0.0 in /  0 mm
06:31 -0.4 °F /  -18 °C -7.4 °F /  -21.9 °C 1015.8 in /  34395 hPa North 2.3 mph /  3.7 km/h   59 % 0.0 in /  0 mm
06:36 -0.4 °F /  -18 °C -7.4 °F /  -21.9 °C 1015.8 in /  34395 hPa North 3.7 mph /  6 km/h 3.7 mph /  6 km/h 59 % 0.0 in /  0 mm
06:41 -0.4 °F /  -18 °C -7.2 °F /  -21.8 °C 1015.8 in /  34395 hPa NNE 1.9 mph /  3.1 km/h 1.9 mph /  3.1 km/h 60 % 0.0 in /  0 mm
06:46 -0.4 °F /  -18 °C -7.2 °F /  -21.8 °C 1015.8 in /  34395 hPa Calm     60 % 0.0 in /  0 mm
06:51 -0.5 °F /  -18.1 °C -7.3 °F /  -21.8 °C 1015.8 in /  34395 hPa West 3.7 mph /  6 km/h 3.7 mph /  6 km/h 60 % 0.0 in /  0 mm
06:56 -0.5 °F /  -18.1 °C -7.3 °F /  -21.8 °C 1015.8 in /  34395 hPa NE 4.7 mph /  7.6 km/h 4.7 mph /  7.6 km/h 60 % 0.0 in /  0 mm
07:01 -0.5 °F /  -18.1 °C -7.3 °F /  -21.8 °C 1014.8 in /  34361.1 hPa NNW 1.9 mph /  3.1 km/h   60 % 0.0 in /  0 mm
07:06 -0.6 °F /  -18.1 °C -7.4 °F /  -21.9 °C 1014.8 in /  34361.1 hPa ENE 1.9 mph /  3.1 km/h   60 % 0.0 in /  0 mm
07:11 -0.6 °F /  -18.1 °C -7.4 °F /  -21.9 °C 1014.8 in /  34361.1 hPa South 3.7 mph /  6 km/h   60 % 0.0 in /  0 mm
07:16 -0.6 °F /  -18.1 °C -7.4 °F /  -21.9 °C 1015.8 in /  34395 hPa Calm     60 % 0.0 in /  0 mm
07:21 -0.7 °F /  -18.2 °C -7.3 °F /  -21.8 °C 1015.8 in /  34395 hPa WNW 3.7 mph /  6 km/h 3.7 mph /  6 km/h 61 % 0.0 in /  0 mm
07:26 -0.8 °F /  -18.2 °C -7.4 °F /  -21.9 °C 1015.8 in /  34395 hPa NNE 3.7 mph /  6 km/h 3.7 mph /  6 km/h 61 % 0.0 in /  0 mm
07:31 -0.6 °F /  -18.1 °C -7.2 °F /  -21.8 °C 1014.8 in /  34361.1 hPa NE 3.7 mph /  6 km/h 3.7 mph /  6 km/h 61 % 0.0 in /  0 mm
07:36 -0.6 °F /  -18.1 °C -7.2 °F /  -21.8 °C 1014.8 in /  34361.1 hPa WNW 1.9 mph /  3.1 km/h   61 % 0.0 in /  0 mm
07:41 -0.6 °F /  -18.1 °C -7.2 °F /  -21.8 °C 1014.8 in /  34361.1 hPa NNW 3.7 mph /  6 km/h 3.7 mph /  6 km/h 61 % 0.0 in /  0 mm
07:46 -0.7 °F /  -18.2 °C -7.3 °F /  -21.8 °C 1015.8 in /  34395 hPa Calm     61 % 0.0 in /  0 mm
07:51 -0.8 °F /  -18.2 °C -7.4 °F /  -21.9 °C 1015.8 in /  34395 hPa WNW 1.9 mph /  3.1 km/h 1.9 mph /  3.1 km/h 61 % 0.0 in /  0 mm
07:56 -0.8 °F /  -18.2 °C -7.4 °F /  -21.9 °C 1015.8 in /  34395 hPa ENE 1.9 mph /  3.1 km/h   61 % 0.0 in /  0 mm
08:01 -0.8 °F /  -18.2 °C -7.4 °F /  -21.9 °C 1015.8 in /  34395 hPa Calm     61 % 0.0 in /  0 mm
08:06 -1.0 °F /  -18.3 °C -7.4 °F /  -21.9 °C 1015.8 in /  34395 hPa West 1.4 mph /  2.3 km/h   62 % 0.0 in /  0 mm
08:11 -0.8 °F /  -18.2 °C -7.2 °F /  -21.8 °C 1015.8 in /  34395 hPa ENE 3.7 mph /  6 km/h 3.7 mph /  6 km/h 62 % 0.0 in /  0 mm
08:16 -0.8 °F /  -18.2 °C -7.2 °F /  -21.8 °C 1016.8 in /  34428.8 hPa WNW 2.3 mph /  3.7 km/h 2.3 mph /  3.7 km/h 62 % 0.0 in /  0 mm
08:21 -0.8 °F /  -18.2 °C -7.2 °F /  -21.8 °C 1016.8 in /  34428.8 hPa WNW 3.2 mph /  5.1 km/h 3.2 mph /  5.1 km/h 62 % 0.0 in /  0 mm
08:26 -0.6 °F /  -18.1 °C -7.0 °F /  -21.7 °C 1016.8 in /  34428.8 hPa Calm     62 % 0.0 in /  0 mm
08:31 -0.5 °F /  -18.1 °C -6.9 °F /  -21.6 °C 1015.8 in /  34395 hPa Calm     62 % 0.0 in /  0 mm
08:36 -0.6 °F /  -18.1 °C -7.0 °F /  -21.7 °C 1015.8 in /  34395 hPa WSW 3.7 mph /  6 km/h 3.7 mph /  6 km/h 62 % 0.0 in /  0 mm
08:41 -0.7 °F /  -18.2 °C -7.1 °F /  -21.7 °C 1015.8 in /  34395 hPa WSW 3.2 mph /  5.1 km/h 3.2 mph /  5.1 km/h 62 % 0.0 in /  0 mm
08:46 -0.7 °F /  -18.2 °C -7.1 °F /  -21.7 °C 1015.8 in /  34395 hPa WSW 3.7 mph /  6 km/h 3.7 mph /  6 km/h 62 % 0.0 in /  0 mm
08:51 -0.7 °F /  -18.2 °C -7.1 °F /  -21.7 °C 1015.8 in /  34395 hPa Calm     62 % 0.0 in /  0 mm
08:56 -0.6 °F /  -18.1 °C -7.0 °F /  -21.7 °C 1015.8 in /  34395 hPa SSE 1.9 mph /  3.1 km/h   62 % 0.0 in /  0 mm
09:01 -0.3 °F /  -17.9 °C -6.7 °F /  -21.5 °C 1015.8 in /  34395 hPa NNE 3.7 mph /  6 km/h 3.7 mph /  6 km/h 62 % 0.0 in /  0 mm
09:06 -0.2 °F /  -17.9 °C -6.6 °F /  -21.4 °C 1015.8 in /  34395 hPa NE 3.7 mph /  6 km/h 3.7 mph /  6 km/h 62 % 0.0 in /  0 mm
09:11 -0.2 °F /  -17.9 °C -6.6 °F /  -21.4 °C 1015.8 in /  34395 hPa NNE 3.9 mph /  6.3 km/h 3.9 mph /  6.3 km/h 62 % 0.0 in /  0 mm
09:16 -0.2 °F /  -17.9 °C -6.6 °F /  -21.4 °C 1016.8 in /  34428.8 hPa WNW 1.9 mph /  3.1 km/h 1.9 mph /  3.1 km/h 62 % 0.0 in /  0 mm
09:21 -0.2 °F /  -17.9 °C -6.6 °F /  -21.4 °C 1016.8 in /  34428.8 hPa Calm     62 % 0.0 in /  0 mm
09:26 -0.3 °F /  -17.9 °C -6.7 °F /  -21.5 °C 1016.8 in /  34428.8 hPa Calm     62 % 0.0 in /  0 mm
09:31 -0.3 °F /  -17.9 °C -6.5 °F /  -21.4 °C 1016.8 in /  34428.8 hPa SW 1.9 mph /  3.1 km/h   63 % 0.0 in /  0 mm
09:36 -0.3 °F /  -17.9 °C -6.7 °F /  -21.5 °C 1016.8 in /  34428.8 hPa SW 1.9 mph /  3.1 km/h 2.3 mph /  3.7 km/h 62 % 0.0 in /  0 mm
09:42 -0.4 °F /  -18 °C -6.8 °F /  -21.6 °C 1016.8 in /  34428.8 hPa SW 1.9 mph /  3.1 km/h 1.9 mph /  3.1 km/h 62 % 0.0 in /  0 mm
09:47 -0.3 °F /  -17.9 °C -6.5 °F /  -21.4 °C 1016.8 in /  34428.8 hPa Calm     63 % 0.0 in /  0 mm
09:52 -0.3 °F /  -17.9 °C -6.5 °F /  -21.4 °C 1016.8 in /  34428.8 hPa Calm     63 % 0.0 in /  0 mm
09:57 -0.3 °F /  -17.9 °C -6.5 °F /  -21.4 °C 1016.8 in /  34428.8 hPa Calm     63 % 0.0 in /  0 mm
10:02 -0.3 °F /  -17.9 °C -6.5 °F /  -21.4 °C 1016.8 in /  34428.8 hPa Calm     63 % 0.0 in /  0 mm
10:07 -0.3 °F /  -17.9 °C -6.5 °F /  -21.4 °C 1016.8 in /  34428.8 hPa Calm     63 % 0.0 in /  0 mm
10:12 -0.3 °F /  -17.9 °C -6.5 °F /  -21.4 °C 1016.8 in /  34428.8 hPa Calm     63 % 0.0 in /  0 mm
10:17 -0.3 °F /  -17.9 °C -6.5 °F /  -21.4 °C 1016.8 in /  34428.8 hPa Calm     63 % 0.0 in /  0 mm
10:22 -0.3 °F /  -17.9 °C -6.5 °F /  -21.4 °C 1016.8 in /  34428.8 hPa Calm     63 % 0.0 in /  0 mm
10:27 -0.3 °F /  -17.9 °C -6.5 °F /  -21.4 °C 1016.8 in /  34428.8 hPa Calm     63 % 0.0 in /  0 mm
10:32 -0.3 °F /  -17.9 °C -6.5 °F /  -21.4 °C 1016.8 in /  34428.8 hPa Calm     63 % 0.0 in /  0 mm
10:37 -0.3 °F /  -17.9 °C -6.5 °F /  -21.4 °C 1016.8 in /  34428.8 hPa Calm     63 % 0.0 in /  0 mm
10:42 -0.3 °F /  -17.9 °C -6.5 °F /  -21.4 °C 1016.8 in /  34428.8 hPa Calm     63 % 0.0 in /  0 mm
10:47 -0.3 °F /  -17.9 °C -6.5 °F /  -21.4 °C 1016.8 in /  34428.8 hPa Calm     63 % 0.0 in /  0 mm
10:52 -0.3 °F /  -17.9 °C -6.5 °F /  -21.4 °C 1016.8 in /  34428.8 hPa Calm     63 % 0.0 in /  0 mm
10:57 -0.3 °F /  -17.9 °C -6.5 °F /  -21.4 °C 1016.8 in /  34428.8 hPa Calm     63 % 0.0 in /  0 mm
11:02 -0.3 °F /  -17.9 °C -6.5 °F /  -21.4 °C 1016.8 in /  34428.8 hPa Calm     63 % 0.0 in /  0 mm
11:07 -0.3 °F /  -17.9 °C -6.5 °F /  -21.4 °C 1016.8 in /  34428.8 hPa Calm     63 % 0.0 in /  0 mm
11:12 -0.3 °F /  -17.9 °C -6.5 °F /  -21.4 °C 1016.8 in /  34428.8 hPa Calm     63 % 0.0 in /  0 mm
11:17 -0.3 °F /  -17.9 °C -6.5 °F /  -21.4 °C 1016.8 in /  34428.8 hPa Calm     63 % 0.0 in /  0 mm
11:22 -0.3 °F /  -17.9 °C -6.5 °F /  -21.4 °C 1016.8 in /  34428.8 hPa Calm     63 % 0.0 in /  0 mm
11:27 -0.3 °F /  -17.9 °C -6.5 °F /  -21.4 °C 1016.8 in /  34428.8 hPa Calm     63 % 0.0 in /  0 mm
11:32 -0.3 °F /  -17.9 °C -6.5 °F /  -21.4 °C 1016.8 in /  34428.8 hPa Calm     63 % 0.0 in /  0 mm
11:37 -0.3 °F /  -17.9 °C -6.5 °F /  -21.4 °C 1016.8 in /  34428.8 hPa Calm     63 % 0.0 in /  0 mm
11:42 4.4 °F /  -15.3 °C -3.9 °F /  -19.9 °C 1017.8 in /  34462.7 hPa NE 7.4 mph /  11.9 km/h 7.4 mph /  11.9 km/h 55 % 0.0 in /  0 mm
11:47 4.6 °F /  -15.2 °C -3.7 °F /  -19.8 °C 1017.8 in /  34462.7 hPa WNW 7.4 mph /  11.9 km/h 7.4 mph /  11.9 km/h 55 % 0.0 in /  0 mm
11:52 4.9 °F /  -15.1 °C -3.4 °F /  -19.7 °C 1017.8 in /  34462.7 hPa WNW 3.7 mph /  6 km/h 3.7 mph /  6 km/h 55 % 0.0 in /  0 mm
11:57 5.6 °F /  -14.7 °C -2.7 °F /  -19.3 °C 1017.8 in /  34462.7 hPa SSW 3.7 mph /  6 km/h 3.7 mph /  6 km/h 55 % 0.0 in /  0 mm
12:02 5.6 °F /  -14.7 °C -3.0 °F /  -19.4 °C 1017.8 in /  34462.7 hPa WSW 9.3 mph /  15 km/h 9.3 mph /  15 km/h 54 % 0.0 in /  0 mm
12:07 5.8 °F /  -14.6 °C -2.8 °F /  -19.3 °C 1017.8 in /  34462.7 hPa ENE 4.7 mph /  7.6 km/h 4.7 mph /  7.6 km/h 54 % 0.0 in /  0 mm
12:12 5.5 °F /  -14.7 °C -3.3 °F /  -19.6 °C 1017.8 in /  34462.7 hPa ESE 3.9 mph /  6.3 km/h 3.9 mph /  6.3 km/h 53 % 0.0 in /  0 mm
12:17 5.6 °F /  -14.7 °C -3.5 °F /  -19.7 °C 1017.8 in /  34462.7 hPa ESE 5.6 mph /  9 km/h 5.6 mph /  9 km/h 52 % 0.0 in /  0 mm
12:22 5.8 °F /  -14.6 °C -3.3 °F /  -19.6 °C 1017.8 in /  34462.7 hPa South 7.4 mph /  11.9 km/h 7.4 mph /  11.9 km/h 52 % 0.0 in /  0 mm
12:27 5.8 °F /  -14.6 °C -3.3 °F /  -19.6 °C 1016.8 in /  34428.8 hPa ENE 7.4 mph /  11.9 km/h 7.4 mph /  11.9 km/h 52 % 0.0 in /  0 mm
12:32 5.9 °F /  -14.5 °C -3.2 °F /  -19.6 °C 1016.8 in /  34428.8 hPa NNE 5.8 mph /  9.3 km/h 5.8 mph /  9.3 km/h 52 % 0.0 in /  0 mm
12:37 5.9 °F /  -14.5 °C -3.2 °F /  -19.6 °C 1016.8 in /  34428.8 hPa ENE 5.6 mph /  9 km/h 5.6 mph /  9 km/h 52 % 0.0 in /  0 mm
12:42 6.2 °F /  -14.3 °C -2.9 °F /  -19.4 °C 1016.8 in /  34428.8 hPa ENE 5.6 mph /  9 km/h 5.6 mph /  9 km/h 52 % 0.0 in /  0 mm
12:47 6.2 °F /  -14.3 °C -2.9 °F /  -19.4 °C 1016.8 in /  34428.8 hPa ENE 7.4 mph /  11.9 km/h 7.4 mph /  11.9 km/h 52 % 0.0 in /  0 mm
12:52 6.0 °F /  -14.4 °C -3.1 °F /  -19.5 °C 1016.8 in /  34428.8 hPa ESE 3.7 mph /  6 km/h 3.7 mph /  6 km/h 52 % 0.0 in /  0 mm
12:57 6.5 °F /  -14.2 °C -2.7 °F /  -19.3 °C 1015.8 in /  34395 hPa ENE 5.0 mph /  8 km/h 5.0 mph /  8 km/h 52 % 0.0 in /  0 mm
13:02 6.3 °F /  -14.3 °C -3.1 °F /  -19.5 °C 1015.8 in /  34395 hPa SE 8.7 mph /  14 km/h 8.7 mph /  14 km/h 51 % 0.0 in /  0 mm
13:07 6.8 °F /  -14 °C -2.7 °F /  -19.3 °C 1015.8 in /  34395 hPa South 7.4 mph /  11.9 km/h 7.4 mph /  11.9 km/h 51 % 0.0 in /  0 mm
13:12 6.5 °F /  -14.2 °C -2.9 °F /  -19.4 °C 1015.8 in /  34395 hPa East 5.0 mph /  8 km/h 5.0 mph /  8 km/h 51 % 0.0 in /  0 mm
13:17 6.3 °F /  -14.3 °C -3.1 °F /  -19.5 °C 1015.8 in /  34395 hPa ENE 3.7 mph /  6 km/h 3.7 mph /  6 km/h 51 % 0.0 in /  0 mm
13:22 6.2 °F /  -14.3 °C -3.2 °F /  -19.6 °C 1015.8 in /  34395 hPa ENE 3.9 mph /  6.3 km/h 3.9 mph /  6.3 km/h 51 % 0.0 in /  0 mm
13:27 6.3 °F /  -14.3 °C -3.1 °F /  -19.5 °C 1015.8 in /  34395 hPa East 9.3 mph /  15 km/h 9.3 mph /  15 km/h 51 % 0.0 in /  0 mm
13:32 6.5 °F /  -14.2 °C -2.9 °F /  -19.4 °C 1015.8 in /  34395 hPa SSE 7.4 mph /  11.9 km/h 7.4 mph /  11.9 km/h 51 % 0.0 in /  0 mm
13:37 6.8 °F /  -14 °C -2.7 °F /  -19.3 °C 1015.8 in /  34395 hPa East 7.4 mph /  11.9 km/h 7.4 mph /  11.9 km/h 51 % 0.0 in /  0 mm
13:42 6.5 °F /  -14.2 °C -2.9 °F /  -19.4 °C 1015.8 in /  34395 hPa ESE 8.7 mph /  14 km/h 8.7 mph /  14 km/h 51 % 0.0 in /  0 mm
13:47 6.3 °F /  -14.3 °C -3.4 °F /  -19.7 °C 1015.8 in /  34395 hPa ESE 9.7 mph /  15.6 km/h 9.7 mph /  15.6 km/h 50 % 0.0 in /  0 mm
13:52 6.3 °F /  -14.3 °C -3.4 °F /  -19.7 °C 1015.8 in /  34395 hPa NNE 8.7 mph /  14 km/h 8.7 mph /  14 km/h 50 % 0.0 in /  0 mm
13:57 6.4 °F /  -14.2 °C -3.0 °F /  -19.4 °C 1016.8 in /  34428.8 hPa NE 9.3 mph /  15 km/h 9.3 mph /  15 km/h 51 % 0.0 in /  0 mm
14:02 6.4 °F /  -14.2 °C -3.6 °F /  -19.8 °C 1016.8 in /  34428.8 hPa ESE 9.3 mph /  15 km/h 9.3 mph /  15 km/h 49 % 0.0 in /  0 mm
14:07 6.7 °F /  -14.1 °C -3.3 °F /  -19.6 °C 1016.8 in /  34428.8 hPa WSW 3.7 mph /  6 km/h 3.7 mph /  6 km/h 49 % 0.0 in /  0 mm
14:12 7.0 °F /  -13.9 °C -3.0 °F /  -19.4 °C 1015.8 in /  34395 hPa ESE 7.4 mph /  11.9 km/h 7.4 mph /  11.9 km/h 49 % 0.0 in /  0 mm
14:17 7.0 °F /  -13.9 °C -3.0 °F /  -19.4 °C 1015.8 in /  34395 hPa East 9.3 mph /  15 km/h 9.3 mph /  15 km/h 49 % 0.0 in /  0 mm
14:22 6.9 °F /  -13.9 °C -3.1 °F /  -19.5 °C 1015.8 in /  34395 hPa ESE 9.3 mph /  15 km/h 9.3 mph /  15 km/h 49 % 0.0 in /  0 mm
14:27 7.1 °F /  -13.8 °C -2.9 °F /  -19.4 °C 1015.8 in /  34395 hPa ESE 5.8 mph /  9.3 km/h 5.8 mph /  9.3 km/h 49 % 0.0 in /  0 mm
14:32 7.2 °F /  -13.8 °C -2.8 °F /  -19.3 °C 1015.8 in /  34395 hPa East 9.7 mph /  15.6 km/h 9.7 mph /  15.6 km/h 49 % 0.0 in /  0 mm
14:37 6.9 °F /  -13.9 °C -3.1 °F /  -19.5 °C 1015.8 in /  34395 hPa ESE 11.4 mph /  18.3 km/h 11.4 mph /  18.3 km/h 49 % 0.0 in /  0 mm
14:42 6.6 °F /  -14.1 °C -2.8 °F /  -19.3 °C 1015.8 in /  34395 hPa ENE 14.8 mph /  23.8 km/h 14.8 mph /  23.8 km/h 51 % 0.0 in /  0 mm
14:47 6.0 °F /  -14.4 °C -2.9 °F /  -19.4 °C 1015.8 in /  34395 hPa ESE 13.0 mph /  20.9 km/h 13.0 mph /  20.9 km/h 53 % 0.0 in /  0 mm
14:52 5.6 °F /  -14.7 °C -2.7 °F /  -19.3 °C 1015.8 in /  34395 hPa ENE 16.7 mph /  26.9 km/h 16.7 mph /  26.9 km/h 55 % 0.0 in /  0 mm
14:57 5.7 °F /  -14.6 °C -2.2 °F /  -19 °C 1015.8 in /  34395 hPa ESE 15.1 mph /  24.3 km/h 15.1 mph /  24.3 km/h 57 % 0.0 in /  0 mm
15:02 5.5 °F /  -14.7 °C -2.1 °F /  -18.9 °C 1015.8 in /  34395 hPa ESE 13.0 mph /  20.9 km/h 13.0 mph /  20.9 km/h 58 % 0.0 in /  0 mm
15:07 5.4 °F /  -14.8 °C -2.0 °F /  -18.9 °C 1015.8 in /  34395 hPa East 17.5 mph /  28.2 km/h 17.5 mph /  28.2 km/h 59 % 0.0 in /  0 mm
15:12 5.3 °F /  -14.8 °C -1.8 °F /  -18.8 °C 1015.8 in /  34395 hPa ESE 13.0 mph /  20.9 km/h 13.0 mph /  20.9 km/h 60 % 0.0 in /  0 mm
15:17 5.3 °F /  -14.8 °C -1.8 °F /  -18.8 °C 1015.8 in /  34395 hPa ESE 14.8 mph /  23.8 km/h 14.8 mph /  23.8 km/h 60 % 0.0 in /  0 mm
15:22 5.2 °F /  -14.9 °C -1.7 °F /  -18.7 °C 1015.8 in /  34395 hPa ESE 18.5 mph /  29.8 km/h 18.5 mph /  29.8 km/h 61 % 0.0 in /  0 mm
15:27 5.0 °F /  -15 °C -1.9 °F /  -18.8 °C 1015.8 in /  34395 hPa ENE 11.9 mph /  19.2 km/h 11.9 mph /  19.2 km/h 61 % 0.0 in /  0 mm
15:32 4.9 °F /  -15.1 °C -2.0 °F /  -18.9 °C 1015.8 in /  34395 hPa ESE 9.3 mph /  15 km/h 9.3 mph /  15 km/h 61 % 0.0 in /  0 mm
15:37 4.8 °F /  -15.1 °C -2.1 °F /  -18.9 °C 1015.8 in /  34395 hPa ENE 18.5 mph /  29.8 km/h 18.5 mph /  29.8 km/h 61 % 0.0 in /  0 mm
15:42 4.7 °F /  -15.2 °C -2.2 °F /  -19 °C 1015.8 in /  34395 hPa East 11.1 mph /  17.9 km/h 11.1 mph /  17.9 km/h 61 % 0.0 in /  0 mm
15:47 4.9 °F /  -15.1 °C -2.0 °F /  -18.9 °C 1015.8 in /  34395 hPa ENE 11.1 mph /  17.9 km/h 11.1 mph /  17.9 km/h 61 % 0.0 in /  0 mm
15:52 4.8 °F /  -15.1 °C -2.1 °F /  -18.9 °C 1015.8 in /  34395 hPa NNE 11.1 mph /  17.9 km/h 11.1 mph /  17.9 km/h 61 % 0.0 in /  0 mm
15:57 4.8 °F /  -15.1 °C -2.1 °F /  -18.9 °C 1015.8 in /  34395 hPa East 7.9 mph /  12.7 km/h 7.9 mph /  12.7 km/h 61 % 0.0 in /  0 mm
16:02 4.8 °F /  -15.1 °C -2.1 °F /  -18.9 °C 1015.8 in /  34395 hPa East 7.4 mph /  11.9 km/h 7.4 mph /  11.9 km/h 61 % 0.0 in /  0 mm
16:07 4.8 °F /  -15.1 °C -2.1 °F /  -18.9 °C 1015.8 in /  34395 hPa SE 5.6 mph /  9 km/h 5.6 mph /  9 km/h 61 % 0.0 in /  0 mm
16:12 4.7 °F /  -15.2 °C -2.4 °F /  -19.1 °C 1015.8 in /  34395 hPa NE 10.3 mph /  16.6 km/h 10.3 mph /  16.6 km/h 60 % 0.0 in /  0 mm
16:17 4.8 °F /  -15.1 °C -2.1 °F /  -18.9 °C 1015.8 in /  34395 hPa ENE 9.0 mph /  14.5 km/h 9.0 mph /  14.5 km/h 61 % 0.0 in /  0 mm
16:22 4.7 °F /  -15.2 °C -2.2 °F /  -19 °C 1015.8 in /  34395 hPa ENE 9.3 mph /  15 km/h 9.3 mph /  15 km/h 61 % 0.0 in /  0 mm
16:27 4.7 °F /  -15.2 °C -2.2 °F /  -19 °C 1015.8 in /  34395 hPa ESE 13.0 mph /  20.9 km/h 13.0 mph /  20.9 km/h 61 % 0.0 in /  0 mm
16:32 4.6 °F /  -15.2 °C -2.3 °F /  -19.1 °C 1015.8 in /  34395 hPa ENE 11.9 mph /  19.2 km/h 11.9 mph /  19.2 km/h 61 % 0.0 in /  0 mm
16:37 4.5 °F /  -15.3 °C -2.4 °F /  -19.1 °C 1015.8 in /  34395 hPa ENE 9.7 mph /  15.6 km/h 9.7 mph /  15.6 km/h 61 % 0.0 in /  0 mm
16:42 4.5 °F /  -15.3 °C -2.4 °F /  -19.1 °C 1016.8 in /  34428.8 hPa East 11.1 mph /  17.9 km/h 11.1 mph /  17.9 km/h 61 % 0.0 in /  0 mm
16:47 4.4 °F /  -15.3 °C -2.5 °F /  -19.2 °C 1016.8 in /  34428.8 hPa NE 7.4 mph /  11.9 km/h 7.4 mph /  11.9 km/h 61 % 0.0 in /  0 mm
16:52 4.4 °F /  -15.3 °C -2.5 °F /  -19.2 °C 1016.8 in /  34428.8 hPa ENE 7.4 mph /  11.9 km/h 7.4 mph /  11.9 km/h 61 % 0.0 in /  0 mm
16:57 4.3 °F /  -15.4 °C -2.3 °F /  -19.1 °C 1016.8 in /  34428.8 hPa NNE 7.6 mph /  12.2 km/h 7.6 mph /  12.2 km/h 62 % 0.0 in /  0 mm
17:02 4.3 °F /  -15.4 °C -2.3 °F /  -19.1 °C 1016.8 in /  34428.8 hPa ENE 9.3 mph /  15 km/h 9.3 mph /  15 km/h 62 % 0.0 in /  0 mm
17:07 4.2 °F /  -15.4 °C -2.4 °F /  -19.1 °C 1016.8 in /  34428.8 hPa NE 7.4 mph /  11.9 km/h 7.4 mph /  11.9 km/h 62 % 0.0 in /  0 mm
17:12 4.2 °F /  -15.4 °C -2.4 °F /  -19.1 °C 1016.8 in /  34428.8 hPa NNE 7.4 mph /  11.9 km/h 7.4 mph /  11.9 km/h 62 % 0.0 in /  0 mm
17:17 4.2 °F /  -15.4 °C -2.4 °F /  -19.1 °C 1016.8 in /  34428.8 hPa NW 7.4 mph /  11.9 km/h 7.4 mph /  11.9 km/h 62 % 0.0 in /  0 mm
17:22 4.1 °F /  -15.5 °C -2.6 °F /  -19.2 °C 1016.8 in /  34428.8 hPa NE 5.6 mph /  9 km/h 5.6 mph /  9 km/h 62 % 0.0 in /  0 mm
17:27 4.1 °F /  -15.5 °C -2.6 °F /  -19.2 °C 1016.8 in /  34428.8 hPa NNE 9.3 mph /  15 km/h 9.3 mph /  15 km/h 62 % 0.0 in /  0 mm
17:32 4.1 °F /  -15.5 °C -2.6 °F /  -19.2 °C 1016.8 in /  34428.8 hPa NNE 5.6 mph /  9 km/h 5.6 mph /  9 km/h 62 % 0.0 in /  0 mm
17:37 4.1 °F /  -15.5 °C -2.6 °F /  -19.2 °C 1016.8 in /  34428.8 hPa NNE 7.4 mph /  11.9 km/h 7.4 mph /  11.9 km/h 62 % 0.0 in /  0 mm
17:42 4.0 °F /  -15.6 °C -2.6 °F /  -19.2 °C 1016.8 in /  34428.8 hPa NE 5.6 mph /  9 km/h 5.6 mph /  9 km/h 62 % 0.0 in /  0 mm
17:47 4.0 °F /  -15.6 °C -2.6 °F /  -19.2 °C 1016.8 in /  34428.8 hPa NNE 5.6 mph /  9 km/h 5.6 mph /  9 km/h 62 % 0.0 in /  0 mm
17:52 3.9 °F /  -15.6 °C -2.7 °F /  -19.3 °C 1016.8 in /  34428.8 hPa NNE 5.8 mph /  9.3 km/h 5.8 mph /  9.3 km/h 62 % 0.0 in /  0 mm
17:57 3.9 °F /  -15.6 °C -2.7 °F /  -19.3 °C 1017.8 in /  34462.7 hPa ENE 6.1 mph /  9.8 km/h 6.1 mph /  9.8 km/h 62 % 0.0 in /  0 mm
18:02 3.9 °F /  -15.6 °C -2.7 °F /  -19.3 °C 1017.8 in /  34462.7 hPa NE 3.7 mph /  6 km/h 3.7 mph /  6 km/h 62 % 0.0 in /  0 mm
18:07 3.9 °F /  -15.6 °C -2.7 °F /  -19.3 °C 1017.8 in /  34462.7 hPa NNE 3.7 mph /  6 km/h 3.7 mph /  6 km/h 62 % 0.0 in /  0 mm
18:12 3.8 °F /  -15.7 °C -2.8 °F /  -19.3 °C 1016.8 in /  34428.8 hPa East 3.7 mph /  6 km/h 3.7 mph /  6 km/h 62 % 0.0 in /  0 mm
18:17 3.8 °F /  -15.7 °C -2.8 °F /  -19.3 °C 1016.8 in /  34428.8 hPa NE 2.6 mph /  4.2 km/h 2.6 mph /  4.2 km/h 62 % 0.0 in /  0 mm
18:22 3.8 °F /  -15.7 °C -2.8 °F /  -19.3 °C 1016.8 in /  34428.8 hPa ENE 3.7 mph /  6 km/h 3.7 mph /  6 km/h 62 % 0.0 in /  0 mm
18:27 3.8 °F /  -15.7 °C -2.8 °F /  -19.3 °C 1017.8 in /  34462.7 hPa ENE 3.7 mph /  6 km/h 3.7 mph /  6 km/h 62 % 0.0 in /  0 mm
18:32 3.8 °F /  -15.7 °C -2.8 °F /  -19.3 °C 1017.8 in /  34462.7 hPa ENE 2.6 mph /  4.2 km/h 2.6 mph /  4.2 km/h 62 % 0.0 in /  0 mm
18:37 3.8 °F /  -15.7 °C -2.8 °F /  -19.3 °C 1017.8 in /  34462.7 hPa NE 3.7 mph /  6 km/h 3.7 mph /  6 km/h 62 % 0.0 in /  0 mm
18:42 3.7 °F /  -15.7 °C -2.9 °F /  -19.4 °C 1017.8 in /  34462.7 hPa Calm     62 % 0.0 in /  0 mm
18:47 3.7 °F /  -15.7 °C -2.9 °F /  -19.4 °C 1017.8 in /  34462.7 hPa ENE 1.9 mph /  3.1 km/h 1.9 mph /  3.1 km/h 62 % 0.0 in /  0 mm
18:52 3.7 °F /  -15.7 °C -2.9 °F /  -19.4 °C 1017.8 in /  34462.7 hPa ENE 1.9 mph /  3.1 km/h 2.3 mph /  3.7 km/h 62 % 0.0 in /  0 mm
18:57 3.7 °F /  -15.7 °C -2.9 °F /  -19.4 °C 1017.8 in /  34462.7 hPa Calm     62 % 0.0 in /  0 mm
19:02 3.7 °F /  -15.7 °C -2.9 °F /  -19.4 °C 1017.8 in /  34462.7 hPa Calm     62 % 0.0 in /  0 mm
19:07 3.7 °F /  -15.7 °C -2.7 °F /  -19.3 °C 1017.8 in /  34462.7 hPa Calm     63 % 0.0 in /  0 mm
19:12 3.6 °F /  -15.8 °C -2.8 °F /  -19.3 °C 1017.8 in /  34462.7 hPa Calm     63 % 0.0 in /  0 mm
19:17 3.7 °F /  -15.7 °C -2.9 °F /  -19.4 °C 1017.8 in /  34462.7 hPa NE 3.7 mph /  6 km/h 3.7 mph /  6 km/h 62 % 0.0 in /  0 mm
19:22 3.7 °F /  -15.7 °C -2.9 °F /  -19.4 °C 1017.8 in /  34462.7 hPa ENE 7.4 mph /  11.9 km/h 7.4 mph /  11.9 km/h 62 % 0.0 in /  0 mm
19:27 3.7 °F /  -15.7 °C -2.7 °F /  -19.3 °C 1017.8 in /  34462.7 hPa ENE 3.9 mph /  6.3 km/h 3.9 mph /  6.3 km/h 63 % 0.0 in /  0 mm
19:32 3.7 °F /  -15.7 °C -2.9 °F /  -19.4 °C 1017.8 in /  34462.7 hPa NNE 3.7 mph /  6 km/h 3.7 mph /  6 km/h 62 % 0.0 in /  0 mm
19:37 3.7 °F /  -15.7 °C -2.9 °F /  -19.4 °C 1017.8 in /  34462.7 hPa ENE 5.6 mph /  9 km/h 5.6 mph /  9 km/h 62 % 0.0 in /  0 mm
19:42 3.7 °F /  -15.7 °C -2.9 °F /  -19.4 °C 1017.8 in /  34462.7 hPa NE 3.7 mph /  6 km/h 3.7 mph /  6 km/h 62 % 0.0 in /  0 mm
19:47 3.7 °F /  -15.7 °C -2.9 °F /  -19.4 °C 1017.8 in /  34462.7 hPa SSE 3.7 mph /  6 km/h 3.7 mph /  6 km/h 62 % 0.0 in /  0 mm
19:52 3.7 °F /  -15.7 °C -2.9 °F /  -19.4 °C 1017.8 in /  34462.7 hPa Calm     62 % 0.0 in /  0 mm
19:57 3.6 °F /  -15.8 °C -3.0 °F /  -19.4 °C 1017.8 in /  34462.7 hPa SSE 1.9 mph /  3.1 km/h 1.9 mph /  3.1 km/h 62 % 0.0 in /  0 mm
20:02 3.6 °F /  -15.8 °C -2.8 °F /  -19.3 °C 1017.8 in /  34462.7 hPa Calm     63 % 0.0 in /  0 mm
20:07 3.5 °F /  -15.8 °C -2.9 °F /  -19.4 °C 1017.8 in /  34462.7 hPa East 1.9 mph /  3.1 km/h 2.3 mph /  3.7 km/h 63 % 0.0 in /  0 mm
20:12 3.5 °F /  -15.8 °C -2.9 °F /  -19.4 °C 1017.8 in /  34462.7 hPa NNE 5.6 mph /  9 km/h 5.6 mph /  9 km/h 63 % 0.0 in /  0 mm
20:17 3.5 °F /  -15.8 °C -3.1 °F /  -19.5 °C 1017.8 in /  34462.7 hPa NNE 3.9 mph /  6.3 km/h 3.9 mph /  6.3 km/h 62 % 0.0 in /  0 mm
20:22 3.5 °F /  -15.8 °C -3.1 °F /  -19.5 °C 1017.8 in /  34462.7 hPa NNE 3.7 mph /  6 km/h 3.7 mph /  6 km/h 62 % 0.0 in /  0 mm
20:27 3.4 °F /  -15.9 °C -3.2 °F /  -19.6 °C 1017.8 in /  34462.7 hPa NNE 1.9 mph /  3.1 km/h   62 % 0.0 in /  0 mm
20:32 3.3 °F /  -15.9 °C -3.3 °F /  -19.6 °C 1017.8 in /  34462.7 hPa NNE 3.9 mph /  6.3 km/h 3.9 mph /  6.3 km/h 62 % 0.0 in /  0 mm
20:37 3.2 °F /  -16 °C -3.4 °F /  -19.7 °C 1017.8 in /  34462.7 hPa NNE 3.7 mph /  6 km/h 3.7 mph /  6 km/h 62 % 0.0 in /  0 mm
20:42 3.0 °F /  -16.1 °C -3.6 °F /  -19.8 °C 1017.8 in /  34462.7 hPa NNE 1.9 mph /  3.1 km/h   62 % 0.0 in /  0 mm
20:47 2.9 °F /  -16.2 °C -3.7 °F /  -19.8 °C 1017.8 in /  34462.7 hPa NE 1.9 mph /  3.1 km/h 1.9 mph /  3.1 km/h 62 % 0.0 in /  0 mm
20:52 2.8 °F /  -16.2 °C -3.8 °F /  -19.9 °C 1017.8 in /  34462.7 hPa Calm     62 % 0.0 in /  0 mm
20:57 2.7 °F /  -16.3 °C -3.9 °F /  -19.9 °C 1017.8 in /  34462.7 hPa NNE 1.9 mph /  3.1 km/h   62 % 0.0 in /  0 mm
21:02 2.6 °F /  -16.3 °C -3.9 °F /  -19.9 °C 1017.8 in /  34462.7 hPa NNE 1.9 mph /  3.1 km/h 1.9 mph /  3.1 km/h 62 % 0.0 in /  0 mm
21:07 2.4 °F /  -16.4 °C -3.9 °F /  -19.9 °C 1017.8 in /  34462.7 hPa Calm     63 % 0.0 in /  0 mm
21:12 2.4 °F /  -16.4 °C -3.9 °F /  -19.9 °C 1017.8 in /  34462.7 hPa Calm     63 % 0.0 in /  0 mm
21:17 2.2 °F /  -16.6 °C -4.1 °F /  -20.1 °C 1017.8 in /  34462.7 hPa Calm     63 % 0.0 in /  0 mm
21:22 2.1 °F /  -16.6 °C -4.0 °F /  -20 °C 1017.8 in /  34462.7 hPa Calm     64 % 0.0 in /  0 mm
21:27 2.0 °F /  -16.7 °C -4.1 °F /  -20.1 °C 1017.8 in /  34462.7 hPa Calm     64 % 0.0 in /  0 mm
21:32 2.0 °F /  -16.7 °C -4.1 °F /  -20.1 °C 1017.8 in /  34462.7 hPa Calm     64 % 0.0 in /  0 mm
21:37 1.9 °F /  -16.7 °C -4.2 °F /  -20.1 °C 1017.8 in /  34462.7 hPa WNW 1.9 mph /  3.1 km/h   64 % 0.0 in /  0 mm
21:43 1.8 °F /  -16.8 °C -4.3 °F /  -20.2 °C 1017.8 in /  34462.7 hPa Calm     64 % 0.0 in /  0 mm
21:48 1.8 °F /  -16.8 °C -4.3 °F /  -20.2 °C 1017.8 in /  34462.7 hPa NW 1.9 mph /  3.1 km/h 1.9 mph /  3.1 km/h 64 % 0.0 in /  0 mm
21:53 1.7 °F /  -16.8 °C -4.4 °F /  -20.2 °C 1017.8 in /  34462.7 hPa Calm     64 % 0.0 in /  0 mm
21:58 1.6 °F /  -16.9 °C -4.3 °F /  -20.2 °C 1017.8 in /  34462.7 hPa Calm     65 % 0.0 in /  0 mm
22:03 1.5 °F /  -16.9 °C -4.4 °F /  -20.2 °C 1017.8 in /  34462.7 hPa Calm     65 % 0.0 in /  0 mm
22:07 1.5 °F /  -16.9 °C -4.4 °F /  -20.2 °C 1017.8 in /  34462.7 hPa Calm     65 % 0.0 in /  0 mm
22:13 1.4 °F /  -17 °C -4.4 °F /  -20.2 °C 1017.8 in /  34462.7 hPa Calm     65 % 0.0 in /  0 mm
22:18 1.3 °F /  -17.1 °C -4.6 °F /  -20.3 °C 1017.8 in /  34462.7 hPa Calm     65 % 0.0 in /  0 mm
22:23 1.2 °F /  -17.1 °C -4.7 °F /  -20.4 °C 1017.8 in /  34462.7 hPa Calm     65 % 0.0 in /  0 mm
22:28 1.1 °F /  -17.2 °C -4.8 °F /  -20.4 °C 1016.8 in /  34428.8 hPa Calm     65 % 0.0 in /  0 mm
22:33 1.0 °F /  -17.2 °C -4.8 °F /  -20.4 °C 1016.8 in /  34428.8 hPa Calm     65 % 0.0 in /  0 mm
22:38 1.0 °F /  -17.2 °C -4.7 °F /  -20.4 °C 1016.8 in /  34428.8 hPa Calm     66 % 0.0 in /  0 mm
22:43 1.0 °F /  -17.2 °C -4.7 °F /  -20.4 °C 1016.8 in /  34428.8 hPa Calm     66 % 0.0 in /  0 mm
22:48 1.1 °F /  -17.2 °C -4.6 °F /  -20.3 °C 1016.8 in /  34428.8 hPa NW 1.9 mph /  3.1 km/h   66 % 0.0 in /  0 mm
22:53 1.1 °F /  -17.2 °C -4.3 °F /  -20.2 °C 1016.8 in /  34428.8 hPa Calm     67 % 0.0 in /  0 mm
22:58 1.1 °F /  -17.2 °C -4.6 °F /  -20.3 °C 1016.8 in /  34428.8 hPa Calm     66 % 0.0 in /  0 mm
23:03 0.9 °F /  -17.3 °C -4.7 °F /  -20.4 °C 1016.8 in /  34428.8 hPa Calm     66 % 0.0 in /  0 mm
23:08 0.8 °F /  -17.3 °C -4.8 °F /  -20.4 °C 1016.8 in /  34428.8 hPa Calm     66 % 0.0 in /  0 mm
23:13 0.8 °F /  -17.3 °C -4.6 °F /  -20.3 °C 1017.8 in /  34462.7 hPa Calm     67 % 0.0 in /  0 mm
23:18 0.7 °F /  -17.4 °C -4.7 °F /  -20.4 °C 1017.8 in /  34462.7 hPa WNW 1.9 mph /  3.1 km/h   67 % 0.0 in /  0 mm
23:23 0.7 °F /  -17.4 °C -4.7 °F /  -20.4 °C 1017.8 in /  34462.7 hPa Calm     67 % 0.0 in /  0 mm
23:28 0.6 °F /  -17.4 °C -4.8 °F /  -20.4 °C 1017.8 in /  34462.7 hPa WNW 1.9 mph /  3.1 km/h   67 % 0.0 in /  0 mm
23:33 0.4 °F /  -17.6 °C -5.0 °F /  -20.6 °C 1017.8 in /  34462.7 hPa WSW 3.7 mph /  6 km/h 3.7 mph /  6 km/h 67 % 0.0 in /  0 mm
23:38 0.3 °F /  -17.6 °C -5.1 °F /  -20.6 °C 1017.8 in /  34462.7 hPa Calm     67 % 0.0 in /  0 mm
23:43 0.3 °F /  -17.6 °C -4.9 °F /  -20.5 °C 1017.8 in /  34462.7 hPa WSW 2.3 mph /  3.7 km/h   68 % 0.0 in /  0 mm
23:48 0.2 °F /  -17.7 °C -5.0 °F /  -20.6 °C 1017.8 in /  34462.7 hPa WSW 3.7 mph /  6 km/h 3.7 mph /  6 km/h 68 % 0.0 in /  0 mm
23:53 0.1 °F /  -17.7 °C -5.1 °F /  -20.6 °C 1017.8 in /  34462.7 hPa WSW 3.7 mph /  6 km/h   68 % 0.0 in /  0 mm
23:58 0.0 °F /  -17.8 °C -5.2 °F /  -20.7 °C 1017.8 in /  34462.7 hPa Calm     68 % 0.0 in /  0 mm
Meteo Sesrovires
Elogis d' Weather Underground - 4 mb

Guio original per  Jim McMurry - jmcmurry@mwt.net Adaptat per a la plantilla per  Wim van der Kuil - Leuven-Template.eu

Trobareu la nostra informacio del temps tambe a:

Weather Underground

AWEKAS